createdAt,value
2023-05-19T00:00:59.007Z,8.86
2023-05-19T00:03:25.637Z,8.84
2023-05-19T00:05:53.928Z,8.84
2023-05-19T00:08:22.489Z,8.83
2023-05-19T00:10:49.213Z,8.85
2023-05-19T00:13:15.952Z,8.84
2023-05-19T00:15:42.554Z,8.83
2023-05-19T00:18:09.065Z,8.83
2023-05-19T00:20:35.580Z,8.78
2023-05-19T00:23:01.996Z,8.71
2023-05-19T00:25:28.397Z,8.69
2023-05-19T00:27:54.800Z,8.68
2023-05-19T00:30:22.797Z,8.65
2023-05-19T00:32:49.250Z,8.61
2023-05-19T00:35:16.496Z,8.57
2023-05-19T00:37:42.874Z,8.56
2023-05-19T00:40:10.169Z,8.56
2023-05-19T00:42:36.790Z,8.54
2023-05-19T00:45:03.373Z,8.54
2023-05-19T00:49:56.391Z,8.46
2023-05-19T00:52:23.176Z,8.45
2023-05-19T00:54:51.228Z,8.40
2023-05-19T00:57:17.994Z,8.37
2023-05-19T00:59:44.466Z,8.35
2023-05-19T01:02:10.836Z,8.34
2023-05-19T01:04:39.434Z,8.35
2023-05-19T01:07:06.540Z,8.33
2023-05-19T01:09:33.491Z,8.35
2023-05-19T01:12:01.428Z,8.29
2023-05-19T01:14:28.745Z,8.29
2023-05-19T01:17:08.073Z,8.27
2023-05-19T01:19:46.552Z,8.27
2023-05-19T01:22:27.521Z,8.22
2023-05-19T01:25:08.516Z,8.17
2023-05-19T01:27:53.742Z,8.13
2023-05-19T01:30:39.059Z,8.15
2023-05-19T01:33:08.593Z,8.14
2023-05-19T01:35:37.055Z,8.15
2023-05-19T01:38:07.793Z,8.13
2023-05-19T01:40:35.435Z,8.12
2023-05-19T01:43:02.622Z,8.09
2023-05-19T01:45:31.450Z,8.07
2023-05-19T01:48:01.269Z,8.07
2023-05-19T01:50:28.342Z,8.03
2023-05-19T01:52:55.273Z,8.02
2023-05-19T01:55:23.748Z,8.01
2023-05-19T01:57:58.594Z,8.01
2023-05-19T02:00:46.874Z,8.02
2023-05-19T02:03:59.332Z,8.00
2023-05-19T02:06:57.806Z,7.96
2023-05-19T02:10:03.759Z,7.89
2023-05-19T02:12:40.088Z,7.85
2023-05-19T02:15:10.724Z,7.82
2023-05-19T02:17:41.549Z,7.81
2023-05-19T02:20:11.914Z,7.81
2023-05-19T02:22:38.838Z,7.79
2023-05-19T02:25:05.627Z,7.76
2023-05-19T02:27:32.204Z,7.77
2023-05-19T02:29:58.602Z,7.78
2023-05-19T02:32:24.994Z,7.76
2023-05-19T02:34:51.358Z,7.75
2023-05-19T02:37:17.784Z,7.72
2023-05-19T02:39:44.512Z,7.70
2023-05-19T02:42:12.317Z,7.68
2023-05-19T02:44:38.714Z,7.69
2023-05-19T02:47:05.128Z,7.67
2023-05-19T02:49:35.864Z,7.65
2023-05-19T02:52:03.232Z,7.61
2023-05-19T02:54:33.625Z,7.55
2023-05-19T02:57:00.645Z,7.54
2023-05-19T02:59:27.179Z,7.52
2023-05-19T03:01:56.657Z,7.49
2023-05-19T03:04:23.099Z,7.47
2023-05-19T03:06:50.085Z,7.47
2023-05-19T03:09:16.527Z,7.46
2023-05-19T03:11:42.923Z,7.44
2023-05-19T03:14:13.455Z,7.40
2023-05-19T03:16:43.472Z,7.34
2023-05-19T03:19:10.310Z,7.31
2023-05-19T03:21:36.761Z,7.26
2023-05-19T03:24:03.368Z,7.26
2023-05-19T03:26:29.734Z,7.24
2023-05-19T03:28:56.131Z,7.26
2023-05-19T03:31:22.600Z,7.25
2023-05-19T03:33:49.185Z,7.21
2023-05-19T03:36:15.613Z,7.24
2023-05-19T03:38:42.038Z,7.23
2023-05-19T03:41:08.492Z,7.21
2023-05-19T03:43:34.894Z,7.24
2023-05-19T03:46:02.126Z,7.23
2023-05-19T03:48:28.509Z,7.23
2023-05-19T03:50:55.562Z,7.21
2023-05-19T03:53:21.970Z,7.20
2023-05-19T03:55:49.522Z,7.19
2023-05-19T03:58:16.236Z,7.18
2023-05-19T04:00:42.794Z,7.16
2023-05-19T04:03:09.387Z,7.12
2023-05-19T04:05:35.914Z,7.14
2023-05-19T04:08:02.368Z,7.13
2023-05-19T04:10:29.062Z,7.13
2023-05-19T04:12:55.431Z,7.13
2023-05-19T04:15:21.888Z,7.14
2023-05-19T04:17:48.308Z,7.14
2023-05-19T04:20:14.808Z,7.17
2023-05-19T04:22:41.434Z,7.16
2023-05-19T04:25:08.766Z,7.17
2023-05-19T04:27:38.989Z,7.16
2023-05-19T04:30:06.281Z,7.24
2023-05-19T04:32:32.959Z,7.31
2023-05-19T04:34:59.433Z,7.36
2023-05-19T04:37:26.319Z,7.36
2023-05-19T04:39:52.996Z,7.37
2023-05-19T04:42:19.614Z,7.36
2023-05-19T04:44:49.252Z,7.38
2023-05-19T04:47:15.840Z,7.41
2023-05-19T04:49:42.892Z,7.45
2023-05-19T04:52:11.139Z,7.52
2023-05-19T04:54:38.663Z,7.60
2023-05-19T04:57:05.626Z,7.67
2023-05-19T04:59:32.099Z,7.73
2023-05-19T05:01:58.509Z,7.74
2023-05-19T05:04:24.894Z,7.80
2023-05-19T05:06:51.374Z,7.85
2023-05-19T05:09:19.772Z,7.91
2023-05-19T05:11:46.680Z,7.92
2023-05-19T05:14:13.391Z,8.00
2023-05-19T05:16:40.107Z,8.07
2023-05-19T05:19:06.900Z,8.14
2023-05-19T05:21:33.550Z,8.20
2023-05-19T05:24:00.236Z,8.26
2023-05-19T05:26:33.142Z,8.29
2023-05-19T05:28:59.497Z,8.34
2023-05-19T05:31:25.882Z,8.37
2023-05-19T05:33:52.474Z,8.40
2023-05-19T05:36:18.903Z,8.45
2023-05-19T05:38:45.258Z,8.52
2023-05-19T05:41:11.668Z,8.59
2023-05-19T05:43:38.051Z,8.71
2023-05-19T05:46:04.523Z,9.35
2023-05-19T05:48:31.202Z,9.99
2023-05-19T05:50:58.310Z,9.97
2023-05-19T05:53:26.385Z,9.87
2023-05-19T05:55:53.550Z,9.85
2023-05-19T05:58:21.189Z,9.86
2023-05-19T06:00:51.324Z,9.92
2023-05-19T06:03:17.953Z,10.12
2023-05-19T06:05:44.644Z,10.44
2023-05-19T06:08:11.110Z,11.58
2023-05-19T06:10:39.049Z,11.71
2023-05-19T06:13:05.580Z,12.62
2023-05-19T06:15:32.014Z,15.10
2023-05-19T06:17:59.050Z,16.85
2023-05-19T06:20:25.693Z,15.71
2023-05-19T06:22:52.082Z,14.38
2023-05-19T06:25:18.541Z,13.75
2023-05-19T06:27:44.901Z,13.38
2023-05-19T06:30:12.314Z,13.26
2023-05-19T06:32:38.704Z,13.71
2023-05-19T06:35:05.462Z,13.99
2023-05-19T06:37:31.832Z,14.02
2023-05-19T06:39:58.513Z,15.87
2023-05-19T06:42:25.385Z,18.90
2023-05-19T06:44:53.128Z,21.07
2023-05-19T06:47:19.842Z,22.38
2023-05-19T06:49:46.300Z,23.60
2023-05-19T06:52:12.688Z,23.45
2023-05-19T06:54:39.156Z,22.61
2023-05-19T06:57:05.619Z,21.52
2023-05-19T06:59:32.571Z,21.62
2023-05-19T07:01:59.051Z,21.39
2023-05-19T07:04:25.538Z,22.23
2023-05-19T07:06:51.922Z,23.07
2023-05-19T07:09:18.377Z,23.36
2023-05-19T07:11:45.292Z,23.71
2023-05-19T07:14:11.678Z,22.54
2023-05-19T07:16:38.136Z,22.38
2023-05-19T07:19:04.820Z,22.48
2023-05-19T07:21:31.437Z,22.36
2023-05-19T07:23:57.998Z,22.27
2023-05-19T07:26:24.579Z,22.93
2023-05-19T07:28:51.826Z,23.52
2023-05-19T07:31:18.291Z,23.34
2023-05-19T07:33:44.743Z,22.62
2023-05-19T07:36:11.357Z,22.48
2023-05-19T07:38:38.074Z,22.50
2023-05-19T07:41:04.627Z,22.17
2023-05-19T07:43:31.471Z,21.83
2023-05-19T07:45:57.965Z,21.70
2023-05-19T07:48:25.706Z,20.90
2023-05-19T07:50:52.689Z,20.67
2023-05-19T07:53:20.183Z,20.66
2023-05-19T07:55:47.032Z,20.60
2023-05-19T07:58:13.666Z,20.15
2023-05-19T08:00:42.937Z,19.89
2023-05-19T08:03:09.977Z,19.38
2023-05-19T08:05:36.661Z,19.44
2023-05-19T08:08:03.601Z,19.63
2023-05-19T08:10:30.073Z,19.79
2023-05-19T08:12:56.703Z,19.62
2023-05-19T08:15:23.305Z,19.49
2023-05-19T08:17:49.867Z,19.55
2023-05-19T08:20:16.320Z,19.49
2023-05-19T08:22:43.853Z,19.42
2023-05-19T08:25:11.584Z,19.38
2023-05-19T08:27:38.020Z,19.44
2023-05-19T08:30:04.904Z,19.29
2023-05-19T08:32:31.548Z,19.14
2023-05-19T08:34:57.927Z,19.23
2023-05-19T08:37:24.453Z,19.31
2023-05-19T08:39:50.831Z,19.19
2023-05-19T08:42:17.353Z,19.29
2023-05-19T08:44:44.081Z,19.27
2023-05-19T08:47:13.784Z,19.25
2023-05-19T08:49:45.292Z,19.09
2023-05-19T08:52:32.854Z,18.88
2023-05-19T08:55:04.533Z,19.02
2023-05-19T08:57:32.736Z,19.00
2023-05-19T09:00:00.334Z,18.86
2023-05-19T09:02:27.616Z,18.87
2023-05-19T09:04:54.334Z,18.81
2023-05-19T09:07:22.823Z,18.59
2023-05-19T09:09:49.349Z,18.51
2023-05-19T09:12:16.111Z,18.51
2023-05-19T09:14:42.618Z,18.50
2023-05-19T09:17:09.635Z,18.53
2023-05-19T09:19:36.375Z,18.60
2023-05-19T09:22:06.221Z,18.66
2023-05-19T09:24:34.100Z,18.81
2023-05-19T09:27:00.633Z,18.99
2023-05-19T09:29:27.061Z,19.01
2023-05-19T09:31:55.999Z,18.93
2023-05-19T09:34:24.772Z,18.93
2023-05-19T09:36:54.071Z,18.97
2023-05-19T09:39:22.331Z,19.07
2023-05-19T09:41:53.799Z,19.08
2023-05-19T09:44:20.132Z,19.03
2023-05-19T09:46:52.631Z,19.08
2023-05-19T09:49:23.803Z,18.98
2023-05-19T09:51:53.545Z,18.82
2023-05-19T09:54:21.733Z,18.68
2023-05-19T09:57:02.025Z,18.50
2023-05-19T09:59:32.370Z,18.43
2023-05-19T10:02:00.615Z,18.36
2023-05-19T10:04:29.229Z,18.40
2023-05-19T10:07:05.290Z,18.51
2023-05-19T10:09:32.241Z,18.58
2023-05-19T10:11:59.054Z,18.64
2023-05-19T10:14:27.163Z,18.74
2023-05-19T10:16:55.478Z,18.88
2023-05-19T10:19:24.730Z,18.82
2023-05-19T10:21:52.182Z,18.76
2023-05-19T10:24:19.401Z,18.76
2023-05-19T10:26:52.984Z,18.75
2023-05-19T10:29:25.208Z,18.93
2023-05-19T10:31:54.101Z,18.97
2023-05-19T10:34:50.266Z,18.98
2023-05-19T10:37:45.905Z,19.09
2023-05-19T10:40:38.080Z,19.23
2023-05-19T10:43:31.044Z,19.31
2023-05-19T10:45:57.981Z,19.30
2023-05-19T10:48:24.543Z,19.17
2023-05-19T10:50:55.056Z,19.29
2023-05-19T10:53:22.694Z,19.42
2023-05-19T10:55:55.855Z,19.52
2023-05-19T10:58:49.848Z,19.58
2023-05-19T11:01:18.811Z,19.62
2023-05-19T11:03:57.283Z,19.81
2023-05-19T11:06:32.303Z,19.78
2023-05-19T11:09:10.357Z,20.00
2023-05-19T11:11:49.018Z,20.06
2023-05-19T11:14:18.746Z,20.09
2023-05-19T11:16:50.026Z,20.21
2023-05-19T11:19:27.258Z,20.22
2023-05-19T11:21:57.540Z,20.43
2023-05-19T11:24:44.639Z,20.37
2023-05-19T11:27:22.772Z,20.37
2023-05-19T11:29:49.421Z,20.57
2023-05-19T11:32:16.627Z,20.64
2023-05-19T11:34:44.580Z,20.69
2023-05-19T11:37:11.781Z,20.82
2023-05-19T11:39:39.735Z,20.86
2023-05-19T11:42:06.462Z,20.96
2023-05-19T11:44:32.881Z,20.85
2023-05-19T11:47:00.149Z,20.79
2023-05-19T11:49:29.304Z,20.99
2023-05-19T11:51:56.241Z,21.31
2023-05-19T11:54:32.813Z,21.41
2023-05-19T11:57:03.808Z,21.39
2023-05-19T11:59:36.014Z,21.46
2023-05-19T12:02:15.680Z,21.67
2023-05-19T12:04:42.343Z,21.67
2023-05-19T12:07:10.549Z,21.68
2023-05-19T12:09:37.060Z,21.66
2023-05-19T12:12:04.360Z,21.70
2023-05-19T12:14:31.514Z,21.84
2023-05-19T12:16:58.192Z,21.93
2023-05-19T12:19:25.730Z,21.83
2023-05-19T12:21:53.010Z,21.70
2023-05-19T12:24:20.469Z,21.62
2023-05-19T12:26:47.074Z,21.55
2023-05-19T12:29:13.820Z,21.42
2023-05-19T12:31:41.279Z,21.49
2023-05-19T12:34:08.222Z,21.52
2023-05-19T12:36:34.767Z,21.50
2023-05-19T12:39:01.790Z,21.41
2023-05-19T12:41:29.148Z,21.32
2023-05-19T12:43:55.617Z,21.50
2023-05-19T12:46:22.710Z,21.88
2023-05-19T12:48:49.589Z,22.17
2023-05-19T12:51:19.521Z,22.03
2023-05-19T12:53:47.372Z,21.77
2023-05-19T12:56:17.061Z,21.83
2023-05-19T12:58:43.991Z,21.90
2023-05-19T13:01:18.585Z,22.14
2023-05-19T13:03:45.830Z,22.26
2023-05-19T13:06:12.512Z,22.02
2023-05-19T13:08:40.102Z,22.05
2023-05-19T13:11:06.844Z,22.21
2023-05-19T13:13:33.708Z,22.03
2023-05-19T13:16:00.163Z,22.14
2023-05-19T13:18:27.521Z,22.06
2023-05-19T13:20:54.607Z,21.71
2023-05-19T13:23:23.362Z,21.67
2023-05-19T13:25:50.691Z,21.28
2023-05-19T13:28:17.140Z,21.18
2023-05-19T13:30:44.600Z,21.11
2023-05-19T13:33:11.893Z,21.35
2023-05-19T13:35:38.768Z,21.31
2023-05-19T13:38:06.103Z,21.32
2023-05-19T13:40:36.513Z,21.53
2023-05-19T13:43:04.126Z,21.72
2023-05-19T13:45:30.686Z,21.56
2023-05-19T13:47:57.136Z,21.60
2023-05-19T13:50:23.878Z,21.85
2023-05-19T13:52:50.379Z,22.07
2023-05-19T13:55:16.872Z,22.25
2023-05-19T13:57:44.242Z,22.56
2023-05-19T14:00:11.392Z,22.64
2023-05-19T14:02:38.161Z,22.74
2023-05-19T14:05:06.918Z,22.77
2023-05-19T14:07:34.992Z,22.71
2023-05-19T14:10:02.684Z,22.71
2023-05-19T14:12:38.207Z,22.64
2023-05-19T14:15:13.962Z,22.43
2023-05-19T14:17:40.418Z,22.13
2023-05-19T14:20:07.511Z,22.21
2023-05-19T14:22:33.923Z,22.43
2023-05-19T14:27:55.426Z,22.82
2023-05-19T14:30:21.929Z,22.91
2023-05-19T14:32:48.414Z,22.72
2023-05-19T14:35:14.870Z,22.67
2023-05-19T14:37:41.236Z,22.65
2023-05-19T14:40:08.186Z,22.28
2023-05-19T14:42:34.696Z,22.34
2023-05-19T14:45:01.094Z,22.32
2023-05-19T14:47:27.593Z,22.26
2023-05-19T14:49:54.122Z,22.47
2023-05-19T14:52:20.915Z,22.59
2023-05-19T14:54:47.335Z,22.63
2023-05-19T14:57:13.747Z,22.83
2023-05-19T14:59:40.235Z,23.02
2023-05-19T15:02:07.099Z,22.96
2023-05-19T15:04:33.498Z,22.93
2023-05-19T15:07:09.925Z,23.18
2023-05-19T15:09:36.975Z,22.98
2023-05-19T15:12:03.531Z,22.64
2023-05-19T15:14:31.043Z,22.45
2023-05-19T15:16:58.133Z,22.34
2023-05-19T15:19:24.760Z,22.50
2023-05-19T15:21:51.319Z,22.62
2023-05-19T15:24:17.837Z,22.64
2023-05-19T15:26:44.336Z,22.64
2023-05-19T15:29:10.712Z,22.71
2023-05-19T15:31:38.422Z,22.85
2023-05-19T15:34:05.063Z,22.66
2023-05-19T15:36:31.849Z,22.50
2023-05-19T15:38:58.358Z,22.32
2023-05-19T15:41:24.781Z,22.39
2023-05-19T15:43:51.298Z,22.33
2023-05-19T15:46:19.568Z,22.20
2023-05-19T15:48:46.193Z,22.11
2023-05-19T15:51:12.635Z,22.17
2023-05-19T15:53:39.030Z,22.36
2023-05-19T15:56:05.509Z,22.48
2023-05-19T15:58:33.147Z,22.48
2023-05-19T16:01:01.102Z,22.52
2023-05-19T16:03:27.685Z,22.62
2023-05-19T16:05:54.390Z,22.66
2023-05-19T16:08:21.112Z,22.65
2023-05-19T16:10:47.538Z,22.17
2023-05-19T16:13:14.102Z,21.77
2023-05-19T16:15:40.621Z,21.49
2023-05-19T16:18:07.094Z,21.25
2023-05-19T16:20:34.081Z,21.43
2023-05-19T16:23:01.665Z,21.65
2023-05-19T16:25:28.104Z,21.67
2023-05-19T16:27:54.508Z,21.67
2023-05-19T16:30:22.702Z,21.75
2023-05-19T16:32:49.110Z,21.79
2023-05-19T16:35:15.850Z,21.92
2023-05-19T16:37:44.928Z,22.07
2023-05-19T16:40:12.128Z,22.08
2023-05-19T16:42:39.335Z,22.00
2023-05-19T16:45:09.498Z,21.74
2023-05-19T16:47:36.103Z,21.33
2023-05-19T16:50:02.974Z,21.07
2023-05-19T16:52:29.499Z,20.88
2023-05-19T16:54:55.872Z,20.79
2023-05-19T16:57:22.305Z,20.73
2023-05-19T16:59:49.538Z,20.81
2023-05-19T17:02:17.029Z,20.90
2023-05-19T17:04:43.451Z,20.89
2023-05-19T17:07:16.015Z,20.91
2023-05-19T17:09:43.242Z,20.80
2023-05-19T17:12:09.811Z,20.75
2023-05-19T17:14:36.267Z,20.55
2023-05-19T17:17:03.579Z,20.42
2023-05-19T17:19:30.030Z,20.25
2023-05-19T17:21:57.722Z,20.18
2023-05-19T17:24:24.147Z,20.07
2023-05-19T17:26:50.987Z,19.98
2023-05-19T17:29:18.549Z,20.02
2023-05-19T17:31:45.091Z,20.06
2023-05-19T17:34:11.716Z,20.17
2023-05-19T17:36:38.147Z,20.26
2023-05-19T17:39:04.549Z,20.31
2023-05-19T17:41:31.021Z,20.24
2023-05-19T17:43:57.501Z,20.17
2023-05-19T17:46:25.013Z,20.05
2023-05-19T17:48:51.452Z,19.84
2023-05-19T17:51:18.089Z,19.71
2023-05-19T17:53:45.402Z,19.59
2023-05-19T17:56:12.840Z,19.46
2023-05-19T17:58:41.205Z,19.37
2023-05-19T18:01:08.263Z,19.29
2023-05-19T18:03:35.131Z,19.28
2023-05-19T18:06:02.902Z,19.23
2023-05-19T18:08:31.050Z,19.13
2023-05-19T18:10:58.073Z,18.96
2023-05-19T18:13:25.984Z,18.82
2023-05-19T18:15:54.510Z,18.65
2023-05-19T18:18:20.944Z,18.54
2023-05-19T18:20:48.165Z,18.42
2023-05-19T18:23:14.556Z,18.34
2023-05-19T18:25:49.374Z,18.22
2023-05-19T18:28:15.786Z,18.12
2023-05-19T18:30:43.664Z,18.02
2023-05-19T18:33:10.918Z,17.91
2023-05-19T18:35:37.318Z,17.79
2023-05-19T18:38:03.696Z,17.66
2023-05-19T18:40:30.162Z,17.56
2023-05-19T18:42:56.533Z,17.51
2023-05-19T18:45:22.902Z,17.42
2023-05-19T18:47:49.351Z,17.32
2023-05-19T18:50:16.461Z,17.24
2023-05-19T18:52:42.845Z,17.18
2023-05-19T18:55:09.756Z,17.09
2023-05-19T18:57:36.290Z,16.99
2023-05-19T19:00:04.195Z,16.90
2023-05-19T19:02:31.204Z,16.81
2023-05-19T19:04:57.896Z,16.74
2023-05-19T19:07:25.446Z,16.62
2023-05-19T19:09:51.867Z,16.53
2023-05-19T19:12:20.622Z,16.42
2023-05-19T19:14:47.252Z,16.35
2023-05-19T19:17:13.821Z,16.23
2023-05-19T19:19:40.535Z,16.18
2023-05-19T19:22:06.996Z,16.12
2023-05-19T19:24:33.409Z,16.11
2023-05-19T19:26:59.847Z,16.07
2023-05-19T19:29:26.216Z,15.95
2023-05-19T19:31:52.755Z,15.87
2023-05-19T19:34:19.802Z,15.79
2023-05-19T19:36:47.711Z,15.73
2023-05-19T19:39:14.208Z,15.65
2023-05-19T19:41:41.116Z,15.60
2023-05-19T19:44:07.568Z,15.50
2023-05-19T19:46:34.141Z,15.40
2023-05-19T19:49:00.561Z,15.30
2023-05-19T19:51:27.928Z,15.24
2023-05-19T19:53:54.478Z,15.15
2023-05-19T19:56:23.532Z,15.07
2023-05-19T19:58:50.223Z,14.99
2023-05-19T20:01:16.716Z,14.91
2023-05-19T20:03:43.368Z,14.83
2023-05-19T20:06:09.866Z,14.74
2023-05-19T20:08:36.343Z,14.66
2023-05-19T20:11:02.788Z,14.60
2023-05-19T20:13:30.667Z,14.55
2023-05-19T20:15:58.550Z,14.50
2023-05-19T20:18:25.768Z,14.45
2023-05-19T20:20:52.156Z,14.40
2023-05-19T20:23:18.692Z,14.33
2023-05-19T20:26:02.359Z,14.30
2023-05-19T20:28:31.598Z,14.26
2023-05-19T20:30:58.024Z,14.25
2023-05-19T20:33:24.387Z,14.33
2023-05-19T20:35:50.811Z,14.38
2023-05-19T20:38:17.242Z,14.41
2023-05-19T20:40:43.705Z,14.41
2023-05-19T20:43:10.255Z,14.40
2023-05-19T20:45:36.833Z,14.40
2023-05-19T20:48:03.758Z,14.36
2023-05-19T20:50:30.700Z,14.34
2023-05-19T20:52:57.208Z,14.33
2023-05-19T20:55:23.587Z,14.32
2023-05-19T20:57:50.045Z,14.25
2023-05-19T21:00:16.805Z,14.25
2023-05-19T21:02:44.122Z,14.25
2023-05-19T21:05:10.797Z,14.23
2023-05-19T21:07:37.242Z,14.22
2023-05-19T21:10:03.872Z,14.17
2023-05-19T21:12:33.885Z,14.17
2023-05-19T21:15:01.422Z,14.15
2023-05-19T21:17:27.888Z,14.15
2023-05-19T21:19:58.336Z,14.11
2023-05-19T21:22:26.338Z,14.07
2023-05-19T21:24:53.455Z,14.06
2023-05-19T21:27:21.022Z,14.05
2023-05-19T21:29:50.430Z,13.99
2023-05-19T21:32:16.814Z,14.00
2023-05-19T21:34:43.295Z,13.96
2023-05-19T21:37:09.741Z,13.93
2023-05-19T21:39:36.337Z,13.90
2023-05-19T21:42:03.167Z,13.86
2023-05-19T21:44:31.103Z,13.85
2023-05-19T21:46:57.997Z,13.82
2023-05-19T21:49:24.450Z,13.77
2023-05-19T21:51:50.976Z,13.74
2023-05-19T21:54:17.381Z,13.69
2023-05-19T21:56:43.811Z,13.59
2023-05-19T21:59:11.952Z,13.55
2023-05-19T22:01:38.518Z,13.52
2023-05-19T22:04:05.224Z,13.53
2023-05-19T22:06:36.272Z,13.50
2023-05-19T22:09:02.751Z,13.43
2023-05-19T22:11:29.160Z,13.38
2023-05-19T22:13:55.771Z,13.36
2023-05-19T22:16:22.284Z,13.35
2023-05-19T22:18:48.781Z,13.36
2023-05-19T22:21:15.164Z,13.34
2023-05-19T22:23:46.643Z,13.29
2023-05-19T22:26:13.303Z,13.25
2023-05-19T22:28:39.884Z,13.20
2023-05-19T22:31:06.372Z,13.17
2023-05-19T22:33:33.219Z,13.10
2023-05-19T22:35:59.582Z,13.06
2023-05-19T22:38:26.335Z,13.03
2023-05-19T22:40:52.821Z,12.98
2023-05-19T22:43:19.195Z,12.96
2023-05-19T22:45:46.121Z,12.90
2023-05-19T22:48:12.666Z,12.83
2023-05-19T22:50:39.063Z,12.83
2023-05-19T22:53:05.493Z,12.82
2023-05-19T22:55:32.284Z,12.77
2023-05-19T22:58:00.045Z,12.74
2023-05-19T23:00:26.486Z,12.70
2023-05-19T23:02:52.960Z,12.68
2023-05-19T23:05:19.550Z,12.66
2023-05-19T23:07:45.922Z,12.63
2023-05-19T23:10:12.384Z,12.59
2023-05-19T23:12:40.731Z,12.56
2023-05-19T23:15:09.432Z,12.52
2023-05-19T23:17:36.116Z,12.49
2023-05-19T23:20:02.752Z,12.49
2023-05-19T23:22:29.383Z,12.47
2023-05-19T23:24:56.000Z,12.42
2023-05-19T23:27:22.563Z,12.37
2023-05-19T23:29:50.735Z,12.33
2023-05-19T23:32:17.125Z,12.28
2023-05-19T23:34:43.605Z,12.26
2023-05-19T23:37:10.053Z,12.23
2023-05-19T23:39:38.180Z,12.24
2023-05-19T23:42:05.712Z,12.21
2023-05-19T23:44:32.241Z,12.14
2023-05-19T23:46:58.740Z,12.12
2023-05-19T23:49:25.476Z,12.07
2023-05-19T23:51:51.942Z,12.08
2023-05-19T23:54:18.398Z,12.07
2023-05-19T23:56:56.196Z,12.02
2023-05-19T23:59:22.702Z,11.98
